sensor_id;sensor_type;location;lat;lon;timestamp;pressure;altitude;pressure_sealevel;temperature;humidity
10700;BME280;5401;41.986;21.452;2023-09-19T00:00:27;98587.03;;;22.29;50.21
10700;BME280;5401;41.986;21.452;2023-09-19T00:02:55;98596.03;;;22.29;50.95
10700;BME280;5401;41.986;21.452;2023-09-19T00:05:25;98601.25;;;22.26;50.65
10700;BME280;5401;41.986;21.452;2023-09-19T00:07:54;98600.72;;;22.19;50.76
10700;BME280;5401;41.986;21.452;2023-09-19T00:10:24;98597.22;;;22.09;50.86
10700;BME280;5401;41.986;21.452;2023-09-19T00:12:53;98592.56;;;22.09;51.37
10700;BME280;5401;41.986;21.452;2023-09-19T00:15:23;98586.06;;;22.00;51.54
10700;BME280;5401;41.986;21.452;2023-09-19T00:17:51;98579.50;;;22.01;51.43
10700;BME280;5401;41.986;21.452;2023-09-19T00:20:19;98586.06;;;21.95;51.33
10700;BME280;5401;41.986;21.452;2023-09-19T00:22:49;98583.91;;;21.92;51.78
10700;BME280;5401;41.986;21.452;2023-09-19T00:25:18;98591.28;;;21.92;51.37
10700;BME280;5401;41.986;21.452;2023-09-19T00:27:45;98593.75;;;21.88;52.29
10700;BME280;5401;41.986;21.452;2023-09-19T00:30:17;98586.13;;;21.85;52.21
10700;BME280;5401;41.986;21.452;2023-09-19T00:32:50;98581.22;;;21.87;52.19
10700;BME280;5401;41.986;21.452;2023-09-19T00:35:20;98584.75;;;21.83;52.07
10700;BME280;5401;41.986;21.452;2023-09-19T00:37:50;98579.34;;;21.78;51.89
10700;BME280;5401;41.986;21.452;2023-09-19T00:40:18;98580.97;;;21.74;52.51
10700;BME280;5401;41.986;21.452;2023-09-19T00:42:46;98578.53;;;21.78;52.57
10700;BME280;5401;41.986;21.452;2023-09-19T00:45:16;98569.78;;;21.81;52.59
10700;BME280;5401;41.986;21.452;2023-09-19T00:47:45;98571.69;;;21.80;52.63
10700;BME280;5401;41.986;21.452;2023-09-19T00:50:17;98559.19;;;21.69;52.51
10700;BME280;5401;41.986;21.452;2023-09-19T00:52:46;98566.00;;;21.72;52.35
10700;BME280;5401;41.986;21.452;2023-09-19T00:55:16;98558.41;;;21.64;52.50
10700;BME280;5401;41.986;21.452;2023-09-19T00:57:46;98562.22;;;21.68;52.29
10700;BME280;5401;41.986;21.452;2023-09-19T01:00:15;98563.28;;;21.72;52.39
10700;BME280;5401;41.986;21.452;2023-09-19T01:02:45;98567.09;;;21.71;52.80
10700;BME280;5401;41.986;21.452;2023-09-19T01:05:13;98570.13;;;21.64;52.85
10700;BME280;5401;41.986;21.452;2023-09-19T01:07:42;98567.69;;;21.58;52.96
10700;BME280;5401;41.986;21.452;2023-09-19T01:10:13;98551.38;;;21.43;52.74
10700;BME280;5401;41.986;21.452;2023-09-19T01:12:48;98552.97;;;21.49;52.79
10700;BME280;5401;41.986;21.452;2023-09-19T01:15:23;98547.56;;;21.44;52.78
10700;BME280;5401;41.986;21.452;2023-09-19T01:18:00;98547.00;;;21.42;53.19
10700;BME280;5401;41.986;21.452;2023-09-19T01:20:38;98554.09;;;21.38;53.25
10700;BME280;5401;41.986;21.452;2023-09-19T01:23:14;98552.44;;;21.37;53.24
10700;BME280;5401;41.986;21.452;2023-09-19T01:26:06;98551.38;;;21.38;53.21
10700;BME280;5401;41.986;21.452;2023-09-19T01:28:53;98553.00;;;21.34;53.09
10700;BME280;5401;41.986;21.452;2023-09-19T01:31:23;98559.81;;;21.32;53.90
10700;BME280;5401;41.986;21.452;2023-09-19T01:33:56;98561.16;;;21.34;53.79
10700;BME280;5401;41.986;21.452;2023-09-19T01:36:28;98564.44;;;21.31;53.46
10700;BME280;5401;41.986;21.452;2023-09-19T01:38:55;98564.75;;;21.25;53.50
10700;BME280;5401;41.986;21.452;2023-09-19T01:41:33;98559.81;;;21.22;53.69
10700;BME280;5401;41.986;21.452;2023-09-19T01:44:06;98568.25;;;21.20;53.94
10700;BME280;5401;41.986;21.452;2023-09-19T01:46:40;98560.94;;;21.21;53.73
10700;BME280;5401;41.986;21.452;2023-09-19T01:49:18;98564.19;;;21.23;54.25
10700;BME280;5401;41.986;21.452;2023-09-19T01:51:56;98564.72;;;21.20;54.31
10700;BME280;5401;41.986;21.452;2023-09-19T01:54:33;98565.00;;;21.13;54.30
10700;BME280;5401;41.986;21.452;2023-09-19T01:57:07;98563.09;;;21.14;54.45
10700;BME280;5401;41.986;21.452;2023-09-19T01:59:41;98551.13;;;21.10;54.30
10700;BME280;5401;41.986;21.452;2023-09-19T02:02:12;98548.41;;;21.10;54.17
10700;BME280;5401;41.986;21.452;2023-09-19T02:04:40;98555.22;;;21.08;54.33
10700;BME280;5401;41.986;21.452;2023-09-19T02:07:08;98551.69;;;21.07;54.52
10700;BME280;5401;41.986;21.452;2023-09-19T02:09:35;98551.94;;;21.06;54.49
10700;BME280;5401;41.986;21.452;2023-09-19T02:12:05;98556.28;;;21.07;54.27
10700;BME280;5401;41.986;21.452;2023-09-19T02:14:33;98554.41;;;21.07;54.89
10700;BME280;5401;41.986;21.452;2023-09-19T02:17:02;98559.03;;;21.11;54.32
10700;BME280;5401;41.986;21.452;2023-09-19T02:19:33;98554.94;;;21.14;54.40
10700;BME280;5401;41.986;21.452;2023-09-19T02:22:00;98558.75;;;21.08;54.94
10700;BME280;5401;41.986;21.452;2023-09-19T02:24:29;98551.44;;;20.99;55.36
10700;BME280;5401;41.986;21.452;2023-09-19T02:26:57;98548.69;;;20.94;54.72
10700;BME280;5401;41.986;21.452;2023-09-19T02:29:26;98541.88;;;20.91;55.27
10700;BME280;5401;41.986;21.452;2023-09-19T02:31:55;98546.50;;;20.86;55.15
10700;BME280;5401;41.986;21.452;2023-09-19T02:34:22;98551.97;;;20.81;55.26
10700;BME280;5401;41.986;21.452;2023-09-19T02:36:53;98548.16;;;20.77;55.15
10700;BME280;5401;41.986;21.452;2023-09-19T02:39:21;98538.63;;;20.75;55.18
10700;BME280;5401;41.986;21.452;2023-09-19T02:41:49;98540.00;;;20.77;55.61
10700;BME280;5401;41.986;21.452;2023-09-19T02:44:17;98546.25;;;20.77;55.38
10700;BME280;5401;41.986;21.452;2023-09-19T02:46:46;98540.53;;;20.74;55.63
10700;BME280;5401;41.986;21.452;2023-09-19T02:49:14;98538.63;;;20.70;55.72
10700;BME280;5401;41.986;21.452;2023-09-19T02:51:43;98536.44;;;20.72;55.99
10700;BME280;5401;41.986;21.452;2023-09-19T02:54:15;98534.81;;;20.75;56.00
10700;BME280;5401;41.986;21.452;2023-09-19T02:56:43;98539.44;;;20.70;56.08
10700;BME280;5401;41.986;21.452;2023-09-19T02:59:11;98545.97;;;20.74;55.91
10700;BME280;5401;41.986;21.452;2023-09-19T03:01:39;98541.59;;;20.78;56.01
10700;BME280;5401;41.986;21.452;2023-09-19T03:04:06;98542.44;;;20.78;55.52
10700;BME280;5401;41.986;21.452;2023-09-19T03:06:34;98537.25;;;20.72;56.14
10700;BME280;5401;41.986;21.452;2023-09-19T03:09:02;98543.25;;;20.69;55.58
10700;BME280;5401;41.986;21.452;2023-09-19T03:11:33;98545.44;;;20.67;55.96
10700;BME280;5401;41.986;21.452;2023-09-19T03:14:01;98543.78;;;20.66;55.77
10700;BME280;5401;41.986;21.452;2023-09-19T03:16:28;98541.06;;;20.66;56.26
10700;BME280;5401;41.986;21.452;2023-09-19T03:18:56;98545.97;;;20.69;56.26
10700;BME280;5401;41.986;21.452;2023-09-19T03:21:24;98549.25;;;20.71;56.15
10700;BME280;5401;41.986;21.452;2023-09-19T03:23:51;98540.81;;;20.73;55.91
10700;BME280;5401;41.986;21.452;2023-09-19T03:26:19;98538.63;;;20.75;56.01
10700;BME280;5401;41.986;21.452;2023-09-19T03:28:48;98543.53;;;20.77;56.16
10700;BME280;5401;41.986;21.452;2023-09-19T03:31:16;98554.69;;;20.71;55.96
10700;BME280;5401;41.986;21.452;2023-09-19T03:33:43;98550.06;;;20.67;56.04
10700;BME280;5401;41.986;21.452;2023-09-19T03:36:11;98552.75;;;20.62;56.33
10700;BME280;5401;41.986;21.452;2023-09-19T03:38:40;98554.91;;;20.60;56.25
10700;BME280;5401;41.986;21.452;2023-09-19T03:41:08;98551.63;;;20.58;56.52
10700;BME280;5401;41.986;21.452;2023-09-19T03:43:35;98560.94;;;20.62;56.61
10700;BME280;5401;41.986;21.452;2023-09-19T03:46:04;98557.94;;;20.63;56.73
10700;BME280;5401;41.986;21.452;2023-09-19T03:48:33;98541.91;;;20.67;56.25
10700;BME280;5401;41.986;21.452;2023-09-19T03:51:00;98542.72;;;20.67;56.66
10700;BME280;5401;41.986;21.452;2023-09-19T03:53:28;98538.34;;;20.66;56.78
10700;BME280;5401;41.986;21.452;2023-09-19T03:55:55;98542.44;;;20.69;56.69
10700;BME280;5401;41.986;21.452;2023-09-19T03:58:23;98541.91;;;20.67;56.11
10700;BME280;5401;41.986;21.452;2023-09-19T04:00:50;98544.34;;;20.63;56.48
10700;BME280;5401;41.986;21.452;2023-09-19T04:03:23;98544.63;;;20.67;56.70
10700;BME280;5401;41.986;21.452;2023-09-19T04:06:00;98551.69;;;20.63;56.60
10700;BME280;5401;41.986;21.452;2023-09-19T04:08:28;98548.66;;;20.59;56.86
10700;BME280;5401;41.986;21.452;2023-09-19T04:10:56;98550.28;;;20.55;56.90
10700;BME280;5401;41.986;21.452;2023-09-19T04:13:23;98556.28;;;20.52;57.18
10700;BME280;5401;41.986;21.452;2023-09-19T04:15:51;98558.72;;;20.54;57.06
10700;BME280;5401;41.986;21.452;2023-09-19T04:18:18;98562.81;;;20.56;57.01
10700;BME280;5401;41.986;21.452;2023-09-19T04:20:49;98574.28;;;20.63;56.63
10700;BME280;5401;41.986;21.452;2023-09-19T04:23:16;98568.28;;;20.66;56.81
10700;BME280;5401;41.986;21.452;2023-09-19T04:25:46;98568.00;;;20.68;57.09
10700;BME280;5401;41.986;21.452;2023-09-19T04:28:14;98575.91;;;20.69;56.98
10700;BME280;5401;41.986;21.452;2023-09-19T04:30:43;98576.72;;;20.70;56.64
10700;BME280;5401;41.986;21.452;2023-09-19T04:33:10;98572.09;;;20.80;56.66
10700;BME280;5401;41.986;21.452;2023-09-19T04:35:40;98574.28;;;20.88;56.94
10700;BME280;5401;41.986;21.452;2023-09-19T04:38:10;98575.09;;;20.98;56.25
10700;BME280;5401;41.986;21.452;2023-09-19T04:40:37;98571.81;;;21.06;56.23
10700;BME280;5401;41.986;21.452;2023-09-19T04:43:05;98578.91;;;21.12;56.21
10700;BME280;5401;41.986;21.452;2023-09-19T04:45:33;98579.19;;;21.15;56.57
10700;BME280;5401;41.986;21.452;2023-09-19T04:48:01;98579.97;;;21.16;56.10
10700;BME280;5401;41.986;21.452;2023-09-19T04:50:29;98584.06;;;21.13;56.39
10700;BME280;5401;41.986;21.452;2023-09-19T04:52:57;98574.28;;;21.17;56.40
10700;BME280;5401;41.986;21.452;2023-09-19T04:55:27;98575.88;;;21.18;56.23
10700;BME280;5401;41.986;21.452;2023-09-19T04:57:58;98572.38;;;21.23;56.32
10700;BME280;5401;41.986;21.452;2023-09-19T05:00:25;98575.34;;;21.26;56.40
10700;BME280;5401;41.986;21.452;2023-09-19T05:02:56;98568.81;;;21.17;56.62
10700;BME280;5401;41.986;21.452;2023-09-19T05:05:24;98577.00;;;21.17;56.13
10700;BME280;5401;41.986;21.452;2023-09-19T05:07:52;98579.97;;;21.16;56.11
10700;BME280;5401;41.986;21.452;2023-09-19T05:10:20;98572.09;;;21.19;55.89
10700;BME280;5401;41.986;21.452;2023-09-19T05:12:53;98589.50;;;21.23;55.91
10700;BME280;5401;41.986;21.452;2023-09-19T05:15:20;98590.59;;;21.22;56.05
10700;BME280;5401;41.986;21.452;2023-09-19T05:17:49;98552.50;;;20.93;55.84
10700;BME280;5401;41.986;21.452;2023-09-19T05:20:18;98575.09;;;21.03;56.05
10700;BME280;5401;41.986;21.452;2023-09-19T05:22:57;98583.81;;;21.00;56.29
10700;BME280;5401;41.986;21.452;2023-09-19T05:25:27;98568.56;;;20.99;56.45
10700;BME280;5401;41.986;21.452;2023-09-19T05:27:58;98571.84;;;21.01;56.56
10700;BME280;5401;41.986;21.452;2023-09-19T05:30:26;98575.63;;;21.00;56.41
10700;BME280;5401;41.986;21.452;2023-09-19T05:32:55;98571.03;;;21.01;56.93
10700;BME280;5401;41.986;21.452;2023-09-19T05:35:23;98577.81;;;21.03;56.25
10700;BME280;5401;41.986;21.452;2023-09-19T05:37:51;98578.06;;;21.07;56.52
10700;BME280;5401;41.986;21.452;2023-09-19T05:40:18;98583.25;;;21.08;56.58
10700;BME280;5401;41.986;21.452;2023-09-19T05:42:47;98579.19;;;21.06;56.11
10700;BME280;5401;41.986;21.452;2023-09-19T05:45:17;98583.00;;;21.10;56.13
10700;BME280;5401;41.986;21.452;2023-09-19T05:47:48;98583.50;;;21.16;56.80
10700;BME280;5401;41.986;21.452;2023-09-19T05:50:17;98577.53;;;21.24;56.26
10700;BME280;5401;41.986;21.452;2023-09-19T05:52:51;98576.97;;;21.32;56.05
10700;BME280;5401;41.986;21.452;2023-09-19T05:55:21;98579.44;;;21.44;55.83
10700;BME280;5401;41.986;21.452;2023-09-19T05:57:51;98574.75;;;21.59;55.71
10700;BME280;5401;41.986;21.452;2023-09-19T06:00:20;98584.53;;;21.75;55.52
10700;BME280;5401;41.986;21.452;2023-09-19T06:02:50;98574.84;;;22.07;55.21
10700;BME280;5401;41.986;21.452;2023-09-19T06:05:18;98573.31;;;22.44;55.11
10700;BME280;5401;41.986;21.452;2023-09-19T06:07:46;98576.28;;;22.90;54.35
10700;BME280;5401;41.986;21.452;2023-09-19T06:10:13;98569.38;;;23.30;54.09
10700;BME280;5401;41.986;21.452;2023-09-19T06:12:41;98580.44;;;23.72;53.54
10700;BME280;5401;41.986;21.452;2023-09-19T06:15:10;98569.66;;;24.03;53.17
10700;BME280;5401;41.986;21.452;2023-09-19T06:17:42;98578.03;;;24.35;52.06
10700;BME280;5401;41.986;21.452;2023-09-19T06:20:11;98582.72;;;24.71;52.04
10700;BME280;5401;41.986;21.452;2023-09-19T06:22:41;98572.25;;;25.09;51.13
10700;BME280;5401;41.986;21.452;2023-09-19T06:25:10;98573.97;;;25.50;50.61
10700;BME280;5401;41.986;21.452;2023-09-19T06:27:39;98577.69;;;25.99;49.50
10700;BME280;5401;41.986;21.452;2023-09-19T06:30:08;98573.44;;;26.33;48.97
10700;BME280;5401;41.986;21.452;2023-09-19T06:32:37;98569.81;;;26.59;48.76
10700;BME280;5401;41.986;21.452;2023-09-19T06:35:07;98567.53;;;26.88;47.71
10700;BME280;5401;41.986;21.452;2023-09-19T06:37:37;98569.97;;;26.90;47.97
10700;BME280;5401;41.986;21.452;2023-09-19T06:40:07;98570.34;;;27.18;47.79
10700;BME280;5401;41.986;21.452;2023-09-19T06:42:40;98574.06;;;27.65;47.07
10700;BME280;5401;41.986;21.452;2023-09-19T06:45:08;98579.19;;;27.89;46.29
10700;BME280;5401;41.986;21.452;2023-09-19T06:47:37;98585.78;;;28.09;46.10
10700;BME280;5401;41.986;21.452;2023-09-19T06:50:07;98599.28;;;28.28;45.68
10700;BME280;5401;41.986;21.452;2023-09-19T06:52:39;98594.41;;;28.25;45.38
10700;BME280;5401;41.986;21.452;2023-09-19T06:55:07;98597.06;;;27.99;45.40
10700;BME280;5401;41.986;21.452;2023-09-19T06:57:35;98600.75;;;27.95;45.58
10700;BME280;5401;41.986;21.452;2023-09-19T07:00:04;98591.00;;;27.89;45.78
10700;BME280;5401;41.986;21.452;2023-09-19T07:02:35;98590.06;;;27.94;45.40
10700;BME280;5401;41.986;21.452;2023-09-19T07:05:03;98584.34;;;28.12;45.28
10700;BME280;5401;41.986;21.452;2023-09-19T07:07:34;98577.13;;;28.33;44.80
10700;BME280;5401;41.986;21.452;2023-09-19T07:10:02;98582.81;;;28.36;44.69
10700;BME280;5401;41.986;21.452;2023-09-19T07:12:31;98584.59;;;28.49;44.63
10700;BME280;5401;41.986;21.452;2023-09-19T07:14:59;98585.81;;;28.73;44.27
10700;BME280;5401;41.986;21.452;2023-09-19T07:17:26;98587.75;;;28.73;44.03
10700;BME280;5401;41.986;21.452;2023-09-19T07:19:55;98584.00;;;28.60;43.89
10700;BME280;5401;41.986;21.452;2023-09-19T07:22:23;98583.28;;;28.38;44.34
10700;BME280;5401;41.986;21.452;2023-09-19T07:24:52;98581.75;;;28.15;44.70
10700;BME280;5401;41.986;21.452;2023-09-19T07:27:20;98580.44;;;28.04;44.76
10700;BME280;5401;41.986;21.452;2023-09-19T07:29:48;98580.28;;;28.09;44.64
10700;BME280;5401;41.986;21.452;2023-09-19T07:32:17;98588.06;;;28.79;43.98
10700;BME280;5401;41.986;21.452;2023-09-19T07:34:44;98577.81;;;29.55;43.47
10700;BME280;5401;41.986;21.452;2023-09-19T07:37:12;98584.19;;;30.38;42.09
10700;BME280;5401;41.986;21.452;2023-09-19T07:39:42;98585.44;;;30.69;41.26
10700;BME280;5401;41.986;21.452;2023-09-19T07:42:12;98588.81;;;30.54;41.05
10700;BME280;5401;41.986;21.452;2023-09-19T07:44:43;98587.69;;;30.18;41.63
10700;BME280;5401;41.986;21.452;2023-09-19T07:47:13;98592.88;;;30.28;41.65
10700;BME280;5401;41.986;21.452;2023-09-19T07:49:41;98585.44;;;30.49;41.59
10700;BME280;5401;41.986;21.452;2023-09-19T07:52:09;98598.00;;;30.67;41.24
10700;BME280;5401;41.986;21.452;2023-09-19T07:54:38;98593.94;;;31.33;40.49
10700;BME280;5401;41.986;21.452;2023-09-19T07:57:07;98593.47;;;31.31;39.96
10700;BME280;5401;41.986;21.452;2023-09-19T07:59:36;98586.13;;;30.66;40.44
10700;BME280;5401;41.986;21.452;2023-09-19T08:02:04;98593.38;;;30.22;41.12
10700;BME280;5401;41.986;21.452;2023-09-19T08:04:34;98579.53;;;29.85;41.76
10700;BME280;5401;41.986;21.452;2023-09-19T08:07:02;98584.94;;;29.82;41.86
10700;BME280;5401;41.986;21.452;2023-09-19T08:09:30;98584.06;;;29.89;42.03
10700;BME280;5401;41.986;21.452;2023-09-19T08:11:59;98582.94;;;29.90;42.33
10700;BME280;5401;41.986;21.452;2023-09-19T08:14:28;98578.94;;;29.80;42.62
10700;BME280;5401;41.986;21.452;2023-09-19T08:16:58;98588.84;;;29.72;42.27
10700;BME280;5401;41.986;21.452;2023-09-19T08:19:26;98590.19;;;29.49;42.52
10700;BME280;5401;41.986;21.452;2023-09-19T08:21:55;98580.59;;;29.39;42.88
10700;BME280;5401;41.986;21.452;2023-09-19T08:24:25;98576.06;;;29.43;42.86
10700;BME280;5401;41.986;21.452;2023-09-19T08:26:54;98574.56;;;29.62;42.78
10700;BME280;5401;41.986;21.452;2023-09-19T08:29:22;98580.81;;;29.96;42.38
10700;BME280;5401;41.986;21.452;2023-09-19T08:31:54;98572.84;;;30.31;41.93
10700;BME280;5401;41.986;21.452;2023-09-19T08:34:23;98580.31;;;30.59;41.73
10700;BME280;5401;41.986;21.452;2023-09-19T08:36:51;98578.63;;;30.47;41.42
10700;BME280;5401;41.986;21.452;2023-09-19T08:39:18;98592.34;;;30.35;42.05
10700;BME280;5401;41.986;21.452;2023-09-19T08:41:46;98587.47;;;30.32;42.11
10700;BME280;5401;41.986;21.452;2023-09-19T08:44:13;98592.41;;;30.26;42.22
10700;BME280;5401;41.986;21.452;2023-09-19T08:46:42;98581.63;;;30.33;42.40
10700;BME280;5401;41.986;21.452;2023-09-19T08:49:15;98588.78;;;30.34;41.72
10700;BME280;5401;41.986;21.452;2023-09-19T08:51:48;98578.59;;;30.18;42.37
10700;BME280;5401;41.986;21.452;2023-09-19T08:54:24;98578.38;;;30.31;42.21
10700;BME280;5401;41.986;21.452;2023-09-19T08:56:53;98566.75;;;30.46;41.87
10700;BME280;5401;41.986;21.452;2023-09-19T08:59:22;98573.09;;;30.47;41.70
10700;BME280;5401;41.986;21.452;2023-09-19T09:01:53;98567.34;;;30.52;42.11
10700;BME280;5401;41.986;21.452;2023-09-19T09:04:22;98552.03;;;30.54;41.63
10700;BME280;5401;41.986;21.452;2023-09-19T09:06:53;98557.88;;;30.61;41.86
10700;BME280;5401;41.986;21.452;2023-09-19T09:09:21;98557.13;;;30.72;41.02
10700;BME280;5401;41.986;21.452;2023-09-19T09:11:48;98539.88;;;30.75;41.87
10700;BME280;5401;41.986;21.452;2023-09-19T09:14:19;98539.31;;;30.61;41.11
10700;BME280;5401;41.986;21.452;2023-09-19T09:16:48;98528.41;;;30.65;41.29
10700;BME280;5401;41.986;21.452;2023-09-19T09:19:16;98525.19;;;30.83;40.80
10700;BME280;5401;41.986;21.452;2023-09-19T09:21:50;98525.25;;;30.95;40.71
10700;BME280;5401;41.986;21.452;2023-09-19T09:24:28;98517.13;;;31.10;40.56
10700;BME280;5401;41.986;21.452;2023-09-19T09:26:57;98504.94;;;31.43;40.09
10700;BME280;5401;41.986;21.452;2023-09-19T09:29:41;98502.09;;;31.75;39.90
10700;BME280;5401;41.986;21.452;2023-09-19T09:32:23;98518.72;;;31.63;40.18
10700;BME280;5401;41.986;21.452;2023-09-19T09:34:52;98506.00;;;31.63;40.29
10700;BME280;5401;41.986;21.452;2023-09-19T09:37:21;98514.00;;;31.99;39.33
10700;BME280;5401;41.986;21.452;2023-09-19T09:39:54;98509.72;;;32.26;39.33
10700;BME280;5401;41.986;21.452;2023-09-19T09:42:35;98513.44;;;32.41;39.13
10700;BME280;5401;41.986;21.452;2023-09-19T09:45:16;98502.56;;;32.60;39.26
10700;BME280;5401;41.986;21.452;2023-09-19T09:47:45;98502.72;;;32.79;38.77
10700;BME280;5401;41.986;21.452;2023-09-19T09:50:28;98495.09;;;32.88;38.67
10700;BME280;5401;41.986;21.452;2023-09-19T09:53:19;98482.81;;;33.01;38.16
10700;BME280;5401;41.986;21.452;2023-09-19T09:56:02;98483.38;;;32.94;38.01
10700;BME280;5401;41.986;21.452;2023-09-19T09:58:32;98476.75;;;32.72;38.59
10700;BME280;5401;41.986;21.452;2023-09-19T10:01:01;98477.50;;;32.96;38.17
10700;BME280;5401;41.986;21.452;2023-09-19T10:03:36;98467.53;;;33.22;37.64
10700;BME280;5401;41.986;21.452;2023-09-19T10:06:07;98463.91;;;33.33;37.79
10700;BME280;5401;41.986;21.452;2023-09-19T10:09:02;98453.81;;;33.56;37.51
10700;BME280;5401;41.986;21.452;2023-09-19T10:11:41;98460.56;;;33.85;37.13
10700;BME280;5401;41.986;21.452;2023-09-19T10:14:11;98448.13;;;34.14;36.85
10700;BME280;5401;41.986;21.452;2023-09-19T10:16:45;98459.78;;;34.34;36.59
10700;BME280;5401;41.986;21.452;2023-09-19T10:19:16;98464.19;;;34.20;36.14
10700;BME280;5401;41.986;21.452;2023-09-19T10:21:50;98448.78;;;33.77;36.61
10700;BME280;5401;41.986;21.452;2023-09-19T10:24:19;98444.34;;;33.30;36.70
10700;BME280;5401;41.986;21.452;2023-09-19T10:26:49;98437.69;;;33.04;37.47
10700;BME280;5401;41.986;21.452;2023-09-19T10:29:17;98431.06;;;33.08;37.50
10700;BME280;5401;41.986;21.452;2023-09-19T10:31:47;98434.56;;;33.05;37.20
10700;BME280;5401;41.986;21.452;2023-09-19T10:34:15;98423.75;;;33.15;37.24
10700;BME280;5401;41.986;21.452;2023-09-19T10:36:45;98423.88;;;33.34;36.93
10700;BME280;5401;41.986;21.452;2023-09-19T10:39:15;98424.88;;;33.42;36.75
10700;BME280;5401;41.986;21.452;2023-09-19T10:41:50;98431.56;;;33.41;36.93
10700;BME280;5401;41.986;21.452;2023-09-19T10:44:24;98419.56;;;33.37;36.94
10700;BME280;5401;41.986;21.452;2023-09-19T10:46:52;98418.78;;;33.36;36.71
10700;BME280;5401;41.986;21.452;2023-09-19T10:49:20;98411.63;;;33.35;36.54
10700;BME280;5401;41.986;21.452;2023-09-19T10:51:51;98412.56;;;33.27;36.97
10700;BME280;5401;41.986;21.452;2023-09-19T10:54:23;98407.09;;;33.31;36.45
10700;BME280;5401;41.986;21.452;2023-09-19T10:56:54;98377.56;;;33.23;36.56
10700;BME280;5401;41.986;21.452;2023-09-19T10:59:25;98394.25;;;33.53;36.19
10700;BME280;5401;41.986;21.452;2023-09-19T11:02:15;98381.56;;;33.71;36.05
10700;BME280;5401;41.986;21.452;2023-09-19T11:04:43;98384.81;;;33.88;35.86
10700;BME280;5401;41.986;21.452;2023-09-19T11:07:14;98376.50;;;34.07;35.64
10700;BME280;5401;41.986;21.452;2023-09-19T11:09:47;98379.69;;;34.24;35.18
10700;BME280;5401;41.986;21.452;2023-09-19T11:12:50;98373.22;;;34.55;34.78
10700;BME280;5401;41.986;21.452;2023-09-19T11:18:55;98365.91;;;34.47;34.94
10700;BME280;5401;41.986;21.452;2023-09-19T11:21:52;98361.16;;;34.13;35.19
10700;BME280;5401;41.986;21.452;2023-09-19T11:24:41;98359.34;;;34.20;34.99
10700;BME280;5401;41.986;21.452;2023-09-19T11:27:13;98347.47;;;34.23;34.76
10700;BME280;5401;41.986;21.452;2023-09-19T11:29:45;98347.25;;;34.13;34.98
10700;BME280;5401;41.986;21.452;2023-09-19T11:32:13;98341.91;;;34.05;35.24
10700;BME280;5401;41.986;21.452;2023-09-19T11:34:47;98337.88;;;34.02;34.88
10700;BME280;5401;41.986;21.452;2023-09-19T11:37:59;98334.09;;;34.10;34.90
10700;BME280;5401;41.986;21.452;2023-09-19T11:40:37;98330.06;;;34.08;34.81
10700;BME280;5401;41.986;21.452;2023-09-19T11:43:27;98326.44;;;33.73;34.87
10700;BME280;5401;41.986;21.452;2023-09-19T11:46:10;98319.84;;;33.62;35.19
10700;BME280;5401;41.986;21.452;2023-09-19T11:48:40;98311.66;;;33.84;34.66
10700;BME280;5401;41.986;21.452;2023-09-19T11:51:20;98305.75;;;34.05;34.27
10700;BME280;5401;41.986;21.452;2023-09-19T11:53:53;98296.78;;;33.43;34.47
10700;BME280;5401;41.986;21.452;2023-09-19T11:56:21;98301.50;;;33.27;34.80
10700;BME280;5401;41.986;21.452;2023-09-19T11:58:51;98304.56;;;33.38;34.88
10700;BME280;5401;41.986;21.452;2023-09-19T12:01:30;98300.53;;;33.20;34.53
10700;BME280;5401;41.986;21.452;2023-09-19T12:03:58;98299.28;;;33.02;34.69
10700;BME280;5401;41.986;21.452;2023-09-19T12:06:27;98282.91;;;32.97;34.79
10700;BME280;5401;41.986;21.452;2023-09-19T12:08:55;98279.50;;;33.04;34.55
10700;BME280;5401;41.986;21.452;2023-09-19T12:11:28;98277.78;;;33.30;34.75
10700;BME280;5401;41.986;21.452;2023-09-19T12:13:58;98275.72;;;33.42;34.06
10700;BME280;5401;41.986;21.452;2023-09-19T12:16:29;98278.47;;;33.27;34.29
10700;BME280;5401;41.986;21.452;2023-09-19T12:18:57;98282.97;;;33.46;34.10
10700;BME280;5401;41.986;21.452;2023-09-19T12:21:26;98281.81;;;33.47;33.85
10700;BME280;5401;41.986;21.452;2023-09-19T12:24:04;98281.44;;;33.49;33.88
10700;BME280;5401;41.986;21.452;2023-09-19T12:26:41;98276.94;;;33.60;33.91
10700;BME280;5401;41.986;21.452;2023-09-19T12:29:13;98269.50;;;33.64;33.96
10700;BME280;5401;41.986;21.452;2023-09-19T12:31:52;98263.00;;;33.75;33.84
10700;BME280;5401;41.986;21.452;2023-09-19T12:34:22;98264.72;;;33.46;33.77
10700;BME280;5401;41.986;21.452;2023-09-19T12:37:12;98264.84;;;33.52;33.84
10700;BME280;5401;41.986;21.452;2023-09-19T12:39:43;98249.97;;;33.60;33.34
10700;BME280;5401;41.986;21.452;2023-09-19T12:42:16;98251.00;;;33.71;33.48
10700;BME280;5401;41.986;21.452;2023-09-19T12:44:45;98234.66;;;33.85;33.77
10700;BME280;5401;41.986;21.452;2023-09-19T12:47:16;98244.25;;;34.06;33.44
10700;BME280;5401;41.986;21.452;2023-09-19T12:50:05;98237.47;;;34.04;33.29
10700;BME280;5401;41.986;21.452;2023-09-19T12:52:36;98232.84;;;33.92;33.51
10700;BME280;5401;41.986;21.452;2023-09-19T12:55:04;98221.53;;;33.67;33.82
10700;BME280;5401;41.986;21.452;2023-09-19T12:57:33;98225.94;;;33.68;33.58
10700;BME280;5401;41.986;21.452;2023-09-19T13:00:01;98217.75;;;33.41;33.92
10700;BME280;5401;41.986;21.452;2023-09-19T13:02:30;98211.78;;;33.39;33.90
10700;BME280;5401;41.986;21.452;2023-09-19T13:04:58;98213.28;;;33.70;34.06
10700;BME280;5401;41.986;21.452;2023-09-19T13:07:43;98227.28;;;33.92;33.72
10700;BME280;5401;41.986;21.452;2023-09-19T13:10:12;98215.97;;;33.82;33.74
10700;BME280;5401;41.986;21.452;2023-09-19T13:12:43;98205.09;;;33.77;33.88
10700;BME280;5401;41.986;21.452;2023-09-19T13:15:14;98204.94;;;33.70;34.08
10700;BME280;5401;41.986;21.452;2023-09-19T13:17:47;98209.06;;;33.42;34.10
10700;BME280;5401;41.986;21.452;2023-09-19T13:20:22;98201.53;;;33.43;34.53
10700;BME280;5401;41.986;21.452;2023-09-19T13:22:53;98199.25;;;33.63;34.12